sensor_id;sensor_type;location;lat;lon;timestamp;pressure;altitude;pressure_sealevel;temperature
29701;BMP280;57917;51.380;-0.176;2022-12-24T00:03:22;100325.50;;;10.85
29701;BMP280;57917;51.380;-0.176;2022-12-24T00:09:11;100325.56;;;10.80
29701;BMP280;57917;51.380;-0.176;2022-12-24T00:14:58;100320.38;;;10.70
29701;BMP280;57917;51.380;-0.176;2022-12-24T00:20:47;100329.84;;;10.76
29701;BMP280;57917;51.380;-0.176;2022-12-24T00:26:34;100336.09;;;10.61
29701;BMP280;57917;51.380;-0.176;2022-12-24T00:32:21;100343.22;;;10.61
29701;BMP280;57917;51.380;-0.176;2022-12-24T00:38:08;100341.66;;;10.60
29701;BMP280;57917;51.380;-0.176;2022-12-24T00:43:58;100340.06;;;10.59
29701;BMP280;57917;51.380;-0.176;2022-12-24T00:49:44;100347.13;;;10.68
29701;BMP280;57917;51.380;-0.176;2022-12-24T00:55:31;100343.22;;;10.61
29701;BMP280;57917;51.380;-0.176;2022-12-24T01:01:19;100363.63;;;10.60
29701;BMP280;57917;51.380;-0.176;2022-12-24T01:07:06;100372.59;;;10.64
29701;BMP280;57917;51.380;-0.176;2022-12-24T01:12:53;100380.13;;;10.76
29701;BMP280;57917;51.380;-0.176;2022-12-24T01:18:40;100377.59;;;10.66
29701;BMP280;57917;51.380;-0.176;2022-12-24T01:24:27;100384.72;;;10.70
29701;BMP280;57917;51.380;-0.176;2022-12-24T01:30:14;100398.19;;;10.69
29701;BMP280;57917;51.380;-0.176;2022-12-24T01:36:02;100385.03;;;10.64
29701;BMP280;57917;51.380;-0.176;2022-12-24T01:41:49;100394.13;;;10.58
29701;BMP280;57917;51.380;-0.176;2022-12-24T01:47:54;100400.84;;;10.69
29701;BMP280;57917;51.380;-0.176;2022-12-24T01:53:43;100416.00;;;10.63
29701;BMP280;57917;51.380;-0.176;2022-12-24T01:59:31;100422.09;;;10.64
29701;BMP280;57917;51.380;-0.176;2022-12-24T02:05:28;100430.66;;;10.79
29701;BMP280;57917;51.380;-0.176;2022-12-24T02:11:21;100452.13;;;10.78
29701;BMP280;57917;51.380;-0.176;2022-12-24T02:17:24;100441.25;;;10.79
29701;BMP280;57917;51.380;-0.176;2022-12-24T02:35:36;100456.44;;;10.69
29701;BMP280;57917;51.380;-0.176;2022-12-24T02:41:29;100460.69;;;10.70
29701;BMP280;57917;51.380;-0.176;2022-12-24T02:47:41;100455.00;;;10.58
29701;BMP280;57917;51.380;-0.176;2022-12-24T02:53:30;100470.28;;;10.61
29701;BMP280;57917;51.380;-0.176;2022-12-24T03:11:20;100474.31;;;10.53
29701;BMP280;57917;51.380;-0.176;2022-12-24T03:17:08;100491.53;;;10.51
29701;BMP280;57917;51.380;-0.176;2022-12-24T03:22:56;100478.03;;;10.52
29701;BMP280;57917;51.380;-0.176;2022-12-24T03:28:46;100481.59;;;10.38
29701;BMP280;57917;51.380;-0.176;2022-12-24T03:34:33;100481.13;;;10.31
29701;BMP280;57917;51.380;-0.176;2022-12-24T03:40:23;100491.66;;;10.36
29701;BMP280;57917;51.380;-0.176;2022-12-24T03:46:10;100503.31;;;10.35
29701;BMP280;57917;51.380;-0.176;2022-12-24T03:52:00;100497.22;;;10.39
29701;BMP280;57917;51.380;-0.176;2022-12-24T03:57:48;100502.28;;;10.31
29701;BMP280;57917;51.380;-0.176;2022-12-24T04:03:35;100512.81;;;10.36
29701;BMP280;57917;51.380;-0.176;2022-12-24T04:09:22;100508.13;;;10.33
29701;BMP280;57917;51.380;-0.176;2022-12-24T04:15:09;100511.13;;;10.50
29701;BMP280;57917;51.380;-0.176;2022-12-24T04:20:56;100520.34;;;10.19
29701;BMP280;57917;51.380;-0.176;2022-12-24T04:26:47;100526.69;;;10.18
29701;BMP280;57917;51.380;-0.176;2022-12-24T04:32:34;100525.06;;;10.27
29701;BMP280;57917;51.380;-0.176;2022-12-24T04:38:20;100520.34;;;10.19
29701;BMP280;57917;51.380;-0.176;2022-12-24T04:44:08;100510.03;;;10.17
29701;BMP280;57917;51.380;-0.176;2022-12-24T04:49:55;100530.44;;;10.17
29701;BMP280;57917;51.380;-0.176;2022-12-24T04:55:45;100535.69;;;10.22
29701;BMP280;57917;51.380;-0.176;2022-12-24T05:01:32;100534.94;;;10.11
29701;BMP280;57917;51.380;-0.176;2022-12-24T05:07:19;100526.31;;;9.95
29701;BMP280;57917;51.380;-0.176;2022-12-24T05:13:06;100545.06;;;9.99
29701;BMP280;57917;51.380;-0.176;2022-12-24T05:18:52;100548.66;;;10.18
29701;BMP280;57917;51.380;-0.176;2022-12-24T05:24:39;100552.66;;;10.16
29701;BMP280;57917;51.380;-0.176;2022-12-24T05:30:44;100539.69;;;10.09
29701;BMP280;57917;51.380;-0.176;2022-12-24T05:36:31;100548.38;;;10.20
29701;BMP280;57917;51.380;-0.176;2022-12-24T05:42:18;100557.44;;;10.09
29701;BMP280;57917;51.380;-0.176;2022-12-24T05:48:05;100562.44;;;10.15
29701;BMP280;57917;51.380;-0.176;2022-12-24T05:53:53;100568.78;;;10.09
29701;BMP280;57917;51.380;-0.176;2022-12-24T05:59:40;100594.66;;;10.17
29701;BMP280;57917;51.380;-0.176;2022-12-24T06:05:28;100600.81;;;10.02
29701;BMP280;57917;51.380;-0.176;2022-12-24T06:11:17;100611.13;;;10.14
29701;BMP280;57917;51.380;-0.176;2022-12-24T06:17:04;100608.00;;;9.97
29701;BMP280;57917;51.380;-0.176;2022-12-24T06:22:50;100608.50;;;10.04
29701;BMP280;57917;51.380;-0.176;2022-12-24T06:28:38;100610.34;;;10.04
29701;BMP280;57917;51.380;-0.176;2022-12-24T06:34:25;100604.78;;;10.05
29701;BMP280;57917;51.380;-0.176;2022-12-24T06:40:12;100615.19;;;9.81
29701;BMP280;57917;51.380;-0.176;2022-12-24T06:46:00;100631.34;;;9.75
29701;BMP280;57917;51.380;-0.176;2022-12-24T06:51:47;100641.91;;;9.70
29701;BMP280;57917;51.380;-0.176;2022-12-24T06:57:34;100655.13;;;9.70
29701;BMP280;57917;51.380;-0.176;2022-12-24T07:03:21;100664.94;;;9.54
29701;BMP280;57917;51.380;-0.176;2022-12-24T07:09:12;100674.94;;;9.67
29701;BMP280;57917;51.380;-0.176;2022-12-24T07:15:00;100673.09;;;9.68
29701;BMP280;57917;51.380;-0.176;2022-12-24T07:20:47;100675.53;;;9.64
29701;BMP280;57917;51.380;-0.176;2022-12-24T07:26:33;100683.97;;;9.41
29701;BMP280;57917;51.380;-0.176;2022-12-24T07:32:20;100691.91;;;9.36
29701;BMP280;57917;51.380;-0.176;2022-12-24T07:38:07;100693.47;;;9.42
29701;BMP280;57917;51.380;-0.176;2022-12-24T07:43:54;100699.28;;;9.24
29701;BMP280;57917;51.380;-0.176;2022-12-24T07:49:41;100708.00;;;9.30
29701;BMP280;57917;51.380;-0.176;2022-12-24T07:55:28;100712.47;;;9.19
29701;BMP280;57917;51.380;-0.176;2022-12-24T08:01:14;100710.13;;;9.28
29701;BMP280;57917;51.380;-0.176;2022-12-24T08:07:05;100700.84;;;9.25
29701;BMP280;57917;51.380;-0.176;2022-12-24T08:12:52;100722.50;;;9.22
29701;BMP280;57917;51.380;-0.176;2022-12-24T08:18:39;100717.22;;;9.12
29701;BMP280;57917;51.380;-0.176;2022-12-24T08:24:26;100742.34;;;9.25
29701;BMP280;57917;51.380;-0.176;2022-12-24T08:30:13;100744.44;;;9.18
29701;BMP280;57917;51.380;-0.176;2022-12-24T08:36:07;100744.72;;;9.26
29701;BMP280;57917;51.380;-0.176;2022-12-24T08:41:54;100755.56;;;9.30
29701;BMP280;57917;51.380;-0.176;2022-12-24T08:47:41;100747.88;;;9.23
29701;BMP280;57917;51.380;-0.176;2022-12-24T08:53:29;100746.81;;;9.14
29701;BMP280;57917;51.380;-0.176;2022-12-24T08:59:16;100757.63;;;9.08
29701;BMP280;57917;51.380;-0.176;2022-12-24T09:05:03;100757.66;;;9.18
29701;BMP280;57917;51.380;-0.176;2022-12-24T09:10:50;100762.63;;;9.09
29701;BMP280;57917;51.380;-0.176;2022-12-24T09:16:37;100752.63;;;9.11
29701;BMP280;57917;51.380;-0.176;2022-12-24T09:22:24;100763.16;;;9.21
29701;BMP280;57917;51.380;-0.176;2022-12-24T09:28:11;100757.69;;;9.38
29701;BMP280;57917;51.380;-0.176;2022-12-24T09:34:02;100746.63;;;9.66
29701;BMP280;57917;51.380;-0.176;2022-12-24T09:39:49;100750.03;;;9.71
29701;BMP280;57917;51.380;-0.176;2022-12-24T09:45:45;100766.16;;;9.80
29701;BMP280;57917;51.380;-0.176;2022-12-24T09:51:40;100751.06;;;9.90
29701;BMP280;57917;51.380;-0.176;2022-12-24T09:57:35;100756.31;;;10.00
29701;BMP280;57917;51.380;-0.176;2022-12-24T10:03:24;100775.34;;;10.13
29701;BMP280;57917;51.380;-0.176;2022-12-24T10:15:27;100770.03;;;10.33
29701;BMP280;57917;51.380;-0.176;2022-12-24T10:27:24;100766.28;;;10.49
29701;BMP280;57917;51.380;-0.176;2022-12-24T10:33:19;100783.44;;;10.61
29701;BMP280;57917;51.380;-0.176;2022-12-24T10:39:17;100773.41;;;10.53
29701;BMP280;57917;51.380;-0.176;2022-12-24T10:45:15;100775.25;;;10.58
29701;BMP280;57917;51.380;-0.176;2022-12-24T10:51:14;100782.09;;;10.64
29701;BMP280;57917;51.380;-0.176;2022-12-24T10:57:22;100773.31;;;10.78
29701;BMP280;57917;51.380;-0.176;2022-12-24T11:09:32;100782.44;;;11.01
29701;BMP280;57917;51.380;-0.176;2022-12-24T11:15:29;100789.28;;;11.12
29701;BMP280;57917;51.380;-0.176;2022-12-24T11:21:20;100794.06;;;11.10
29701;BMP280;57917;51.380;-0.176;2022-12-24T11:33:18;100801.44;;;11.13
29701;BMP280;57917;51.380;-0.176;2022-12-24T11:39:09;100799.59;;;11.18
29701;BMP280;57917;51.380;-0.176;2022-12-24T11:45:05;100804.38;;;11.11
29701;BMP280;57917;51.380;-0.176;2022-12-24T11:51:04;100815.69;;;11.22
29701;BMP280;57917;51.380;-0.176;2022-12-24T11:56:56;100823.38;;;11.23
29701;BMP280;57917;51.380;-0.176;2022-12-24T12:02:45;100810.56;;;11.41
29701;BMP280;57917;51.380;-0.176;2022-12-24T12:08:37;100810.00;;;11.44
29701;BMP280;57917;51.380;-0.176;2022-12-24T12:14:37;100811.28;;;11.46
29701;BMP280;57917;51.380;-0.176;2022-12-24T12:20:36;100821.38;;;11.44
29701;BMP280;57917;51.380;-0.176;2022-12-24T12:26:30;100812.38;;;11.45
29701;BMP280;57917;51.380;-0.176;2022-12-24T12:38:41;100794.56;;;11.79
29701;BMP280;57917;51.380;-0.176;2022-12-24T12:56:30;100785.56;;;11.80
29701;BMP280;57917;51.380;-0.176;2022-12-24T13:15:25;100780.25;;;11.80
29701;BMP280;57917;51.380;-0.176;2022-12-24T13:21:22;100783.44;;;11.82
29701;BMP280;57917;51.380;-0.176;2022-12-24T13:33:02;100788.09;;;11.95
29701;BMP280;57917;51.380;-0.176;2022-12-24T13:38:53;100779.03;;;11.96
29701;BMP280;57917;51.380;-0.176;2022-12-24T13:44:42;100787.47;;;12.03
29701;BMP280;57917;51.380;-0.176;2022-12-24T13:50:49;100777.38;;;12.05
29701;BMP280;57917;51.380;-0.176;2022-12-24T13:56:36;100773.09;;;12.09
29701;BMP280;57917;51.380;-0.176;2022-12-24T14:02:23;100784.81;;;12.03
29701;BMP280;57917;51.380;-0.176;2022-12-24T14:08:15;100786.22;;;11.96
29701;BMP280;57917;51.380;-0.176;2022-12-24T14:19:51;100793.50;;;12.09
29701;BMP280;57917;51.380;-0.176;2022-12-24T14:25:42;100783.50;;;12.06
29701;BMP280;57917;51.380;-0.176;2022-12-24T14:31:29;100792.72;;;12.08
29701;BMP280;57917;51.380;-0.176;2022-12-24T14:37:16;100774.22;;;12.03
29701;BMP280;57917;51.380;-0.176;2022-12-24T14:54:57;100774.03;;;11.95
29701;BMP280;57917;51.380;-0.176;2022-12-24T15:00:46;100773.22;;;11.99
29701;BMP280;57917;51.380;-0.176;2022-12-24T15:06:40;100768.22;;;11.93
29701;BMP280;57917;51.380;-0.176;2022-12-24T15:12:29;100752.63;;;11.86
29701;BMP280;57917;51.380;-0.176;2022-12-24T15:18:19;100755.16;;;11.96
29701;BMP280;57917;51.380;-0.176;2022-12-24T15:29:26;100749.03;;;11.72
29701;BMP280;57917;51.380;-0.176;2022-12-24T15:35:31;100759.66;;;11.72
29701;BMP280;57917;51.380;-0.176;2022-12-24T15:41:25;100758.63;;;11.68
29701;BMP280;57917;51.380;-0.176;2022-12-24T15:47:18;100767.06;;;11.42
29701;BMP280;57917;51.380;-0.176;2022-12-24T15:53:28;100754.91;;;11.41
29701;BMP280;57917;51.380;-0.176;2022-12-24T15:59:22;100752.31;;;11.30
29701;BMP280;57917;51.380;-0.176;2022-12-24T16:17:16;100713.63;;;11.35
29701;BMP280;57917;51.380;-0.176;2022-12-24T16:23:03;100715.81;;;11.22
29701;BMP280;57917;51.380;-0.176;2022-12-24T16:28:50;100729.59;;;11.24
29701;BMP280;57917;51.380;-0.176;2022-12-24T16:34:37;100721.34;;;11.21
29701;BMP280;57917;51.380;-0.176;2022-12-24T16:40:24;100727.03;;;11.09
29701;BMP280;57917;51.380;-0.176;2022-12-24T16:46:13;100745.31;;;11.11
29701;BMP280;57917;51.380;-0.176;2022-12-24T16:52:00;100759.56;;;11.15
29701;BMP280;57917;51.380;-0.176;2022-12-24T16:57:47;100772.88;;;11.05
29701;BMP280;57917;51.380;-0.176;2022-12-24T17:03:34;100771.75;;;11.16
29701;BMP280;57917;51.380;-0.176;2022-12-24T17:09:21;100753.16;;;11.26
29701;BMP280;57917;51.380;-0.176;2022-12-24T17:15:09;100763.75;;;11.26
29701;BMP280;57917;51.380;-0.176;2022-12-24T17:21:01;100762.63;;;11.32
29701;BMP280;57917;51.380;-0.176;2022-12-24T17:26:49;100745.94;;;11.31
29701;BMP280;57917;51.380;-0.176;2022-12-24T17:32:37;100754.34;;;11.44
29701;BMP280;57917;51.380;-0.176;2022-12-24T17:38:25;100750.28;;;11.51
29701;BMP280;57917;51.380;-0.176;2022-12-24T17:44:13;100750.41;;;11.65
29701;BMP280;57917;51.380;-0.176;2022-12-24T17:50:00;100738.47;;;11.67
29701;BMP280;57917;51.380;-0.176;2022-12-24T17:55:48;100725.19;;;11.72
29701;BMP280;57917;51.380;-0.176;2022-12-24T18:01:35;100737.16;;;11.70
29701;BMP280;57917;51.380;-0.176;2022-12-24T18:07:25;100745.38;;;11.68
29701;BMP280;57917;51.380;-0.176;2022-12-24T18:13:12;100746.22;;;11.64
29701;BMP280;57917;51.380;-0.176;2022-12-24T18:19:06;100758.13;;;11.66
29701;BMP280;57917;51.380;-0.176;2022-12-24T18:25:00;100731.56;;;11.71
29701;BMP280;57917;51.380;-0.176;2022-12-24T18:30:56;100730.81;;;11.66
29701;BMP280;57917;51.380;-0.176;2022-12-24T18:36:46;100712.09;;;11.57
29701;BMP280;57917;51.380;-0.176;2022-12-24T18:42:41;100706.28;;;11.50
29701;BMP280;57917;51.380;-0.176;2022-12-24T18:48:30;100692.22;;;11.55
29701;BMP280;57917;51.380;-0.176;2022-12-24T18:54:17;100687.72;;;11.50
29701;BMP280;57917;51.380;-0.176;2022-12-24T19:00:04;100702.56;;;11.51
29701;BMP280;57917;51.380;-0.176;2022-12-24T19:05:51;100704.13;;;11.52
29701;BMP280;57917;51.380;-0.176;2022-12-24T19:11:39;100707.31;;;11.54
29701;BMP280;57917;51.380;-0.176;2022-12-24T19:17:26;100699.22;;;11.69
29701;BMP280;57917;51.380;-0.176;2022-12-24T19:23:12;100701.69;;;11.61
29701;BMP280;57917;51.380;-0.176;2022-12-24T19:28:59;100695.38;;;11.57
29701;BMP280;57917;51.380;-0.176;2022-12-24T19:34:46;100702.63;;;11.46
29701;BMP280;57917;51.380;-0.176;2022-12-24T19:40:36;100697.28;;;11.51
29701;BMP280;57917;51.380;-0.176;2022-12-24T19:46:26;100705.13;;;11.61
29701;BMP280;57917;51.380;-0.176;2022-12-24T19:52:13;100703.81;;;11.59
29701;BMP280;57917;51.380;-0.176;2022-12-24T19:58:00;100703.69;;;11.74
29701;BMP280;57917;51.380;-0.176;2022-12-24T20:03:48;100687.28;;;11.72
29701;BMP280;57917;51.380;-0.176;2022-12-24T20:09:35;100657.94;;;11.63
29701;BMP280;57917;51.380;-0.176;2022-12-24T20:15:22;100673.28;;;11.66
29701;BMP280;57917;51.380;-0.176;2022-12-24T20:21:11;100675.59;;;11.44
29701;BMP280;57917;51.380;-0.176;2022-12-24T20:26:58;100668.06;;;11.56
29701;BMP280;57917;51.380;-0.176;2022-12-24T20:32:46;100664.47;;;11.47
29701;BMP280;57917;51.380;-0.176;2022-12-24T20:38:33;100668.31;;;11.60
29701;BMP280;57917;51.380;-0.176;2022-12-24T20:44:21;100680.91;;;11.44
29701;BMP280;57917;51.380;-0.176;2022-12-24T20:50:09;100678.44;;;11.24
29701;BMP280;57917;51.380;-0.176;2022-12-24T20:55:58;100690.03;;;11.28
29701;BMP280;57917;51.380;-0.176;2022-12-24T21:01:45;100683.22;;;11.22
29701;BMP280;57917;51.380;-0.176;2022-12-24T21:07:34;100701.41;;;11.33
29701;BMP280;57917;51.380;-0.176;2022-12-24T21:13:29;100694.38;;;11.19
29701;BMP280;57917;51.380;-0.176;2022-12-24T21:19:23;100714.22;;;11.21
29701;BMP280;57917;51.380;-0.176;2022-12-24T21:25:13;100709.13;;;11.30
29701;BMP280;57917;51.380;-0.176;2022-12-24T21:31:09;100724.53;;;11.23
29701;BMP280;57917;51.380;-0.176;2022-12-24T21:37:09;100721.03;;;11.27
29701;BMP280;57917;51.380;-0.176;2022-12-24T21:43:02;100717.38;;;11.23
29701;BMP280;57917;51.380;-0.176;2022-12-24T21:48:50;100716.06;;;11.21
29701;BMP280;57917;51.380;-0.176;2022-12-24T21:54:57;100727.25;;;11.13
29701;BMP280;57917;51.380;-0.176;2022-12-24T22:00:46;100725.13;;;11.20
29701;BMP280;57917;51.380;-0.176;2022-12-24T22:06:36;100723.75;;;11.22
29701;BMP280;57917;51.380;-0.176;2022-12-24T22:12:45;100710.72;;;11.31
29701;BMP280;57917;51.380;-0.176;2022-12-24T22:18:35;100701.03;;;11.45
29701;BMP280;57917;51.380;-0.176;2022-12-24T22:24:24;100688.19;;;11.28
29701;BMP280;57917;51.380;-0.176;2022-12-24T22:30:14;100689.44;;;11.36
29701;BMP280;57917;51.380;-0.176;2022-12-24T22:36:04;100699.53;;;11.39
29701;BMP280;57917;51.380;-0.176;2022-12-24T22:41:53;100706.38;;;11.40
29701;BMP280;57917;51.380;-0.176;2022-12-24T22:47:39;100704.25;;;11.42
29701;BMP280;57917;51.380;-0.176;2022-12-24T22:53:27;100706.78;;;11.52
29701;BMP280;57917;51.380;-0.176;2022-12-24T22:59:14;100705.25;;;11.46
29701;BMP280;57917;51.380;-0.176;2022-12-24T23:05:01;100705.25;;;11.46
29701;BMP280;57917;51.380;-0.176;2022-12-24T23:10:48;100699.09;;;11.56
29701;BMP280;57917;51.380;-0.176;2022-12-24T23:16:37;100690.97;;;11.47
29701;BMP280;57917;51.380;-0.176;2022-12-24T23:22:25;100695.94;;;11.54
29701;BMP280;57917;51.380;-0.176;2022-12-24T23:28:12;100706.78;;;11.52
29701;BMP280;57917;51.380;-0.176;2022-12-24T23:34:00;100697.38;;;11.65
29701;BMP280;57917;51.380;-0.176;2022-12-24T23:39:48;100685.78;;;11.61
29701;BMP280;57917;51.380;-0.176;2022-12-24T23:45:37;100673.94;;;11.53
29701;BMP280;57917;51.380;-0.176;2022-12-24T23:51:26;100668.06;;;11.56
29701;BMP280;57917;51.380;-0.176;2022-12-24T23:57:13;100660.78;;;11.43
